sensor_id;sensor_type;location;lat;lon;timestamp;P1;durP1;ratioP1;P2;durP2;ratioP2
19219;SDS011;9744;49.364;7.484;2022-09-27T00:00:58;11.40;;;4.38;;
19219;SDS011;9744;49.364;7.484;2022-09-27T00:03:25;9.75;;;4.00;;
19219;SDS011;9744;49.364;7.484;2022-09-27T00:06:00;11.38;;;4.00;;
19219;SDS011;9744;49.364;7.484;2022-09-27T00:08:30;11.20;;;4.35;;
19219;SDS011;9744;49.364;7.484;2022-09-27T00:10:59;10.82;;;4.20;;
19219;SDS011;9744;49.364;7.484;2022-09-27T00:13:28;7.80;;;5.43;;
19219;SDS011;9744;49.364;7.484;2022-09-27T00:15:56;9.02;;;5.05;;
19219;SDS011;9744;49.364;7.484;2022-09-27T00:18:24;11.73;;;5.18;;
19219;SDS011;9744;49.364;7.484;2022-09-27T00:20:52;11.55;;;5.82;;
19219;SDS011;9744;49.364;7.484;2022-09-27T00:23:19;14.82;;;7.38;;
19219;SDS011;9744;49.364;7.484;2022-09-27T00:25:56;12.48;;;6.85;;
19219;SDS011;9744;49.364;7.484;2022-09-27T00:28:24;17.20;;;8.05;;
19219;SDS011;9744;49.364;7.484;2022-09-27T00:30:53;17.42;;;8.40;;
19219;SDS011;9744;49.364;7.484;2022-09-27T00:33:20;11.40;;;7.85;;
19219;SDS011;9744;49.364;7.484;2022-09-27T00:35:48;17.70;;;8.57;;
19219;SDS011;9744;49.364;7.484;2022-09-27T00:38:15;15.60;;;8.50;;
19219;SDS011;9744;49.364;7.484;2022-09-27T00:40:44;16.77;;;8.38;;
19219;SDS011;9744;49.364;7.484;2022-09-27T00:43:14;16.25;;;8.15;;
19219;SDS011;9744;49.364;7.484;2022-09-27T00:45:45;18.90;;;9.18;;
19219;SDS011;9744;49.364;7.484;2022-09-27T00:48:17;18.98;;;7.93;;
19219;SDS011;9744;49.364;7.484;2022-09-27T00:50:48;14.80;;;7.95;;
19219;SDS011;9744;49.364;7.484;2022-09-27T00:53:20;16.88;;;8.32;;
19219;SDS011;9744;49.364;7.484;2022-09-27T00:55:51;16.35;;;7.90;;
19219;SDS011;9744;49.364;7.484;2022-09-27T00:58:22;17.92;;;7.28;;
19219;SDS011;9744;49.364;7.484;2022-09-27T01:00:55;14.20;;;7.63;;
19219;SDS011;9744;49.364;7.484;2022-09-27T01:03:29;14.98;;;7.80;;
19219;SDS011;9744;49.364;7.484;2022-09-27T01:06:01;20.05;;;8.43;;
19219;SDS011;9744;49.364;7.484;2022-09-27T01:08:32;18.30;;;8.43;;
19219;SDS011;9744;49.364;7.484;2022-09-27T01:11:03;14.70;;;8.02;;
19219;SDS011;9744;49.364;7.484;2022-09-27T01:13:42;15.27;;;8.10;;
19219;SDS011;9744;49.364;7.484;2022-09-27T01:16:20;18.48;;;7.50;;
19219;SDS011;9744;49.364;7.484;2022-09-27T01:19:00;14.82;;;7.75;;
19219;SDS011;9744;49.364;7.484;2022-09-27T01:21:44;15.10;;;8.07;;
19219;SDS011;9744;49.364;7.484;2022-09-27T01:24:24;21.33;;;8.73;;
19219;SDS011;9744;49.364;7.484;2022-09-27T01:30:28;17.40;;;9.00;;
19219;SDS011;9744;49.364;7.484;2022-09-27T01:33:09;18.02;;;8.75;;
19219;SDS011;9744;49.364;7.484;2022-09-27T01:35:51;16.05;;;7.65;;
19219;SDS011;9744;49.364;7.484;2022-09-27T01:38:33;13.18;;;7.97;;
19219;SDS011;9744;49.364;7.484;2022-09-27T01:41:12;16.35;;;7.75;;
19219;SDS011;9744;49.364;7.484;2022-09-27T01:44:20;19.10;;;8.40;;
19219;SDS011;9744;49.364;7.484;2022-09-27T01:47:03;18.10;;;8.40;;
19219;SDS011;9744;49.364;7.484;2022-09-27T01:49:48;20.88;;;9.55;;
19219;SDS011;9744;49.364;7.484;2022-09-27T01:52:22;19.55;;;9.27;;
19219;SDS011;9744;49.364;7.484;2022-09-27T01:54:56;19.90;;;9.75;;
19219;SDS011;9744;49.364;7.484;2022-09-27T01:57:48;19.17;;;10.02;;
19219;SDS011;9744;49.364;7.484;2022-09-27T02:00:23;20.38;;;9.38;;
19219;SDS011;9744;49.364;7.484;2022-09-27T02:02:56;20.20;;;9.60;;
19219;SDS011;9744;49.364;7.484;2022-09-27T02:05:35;16.95;;;8.43;;
19219;SDS011;9744;49.364;7.484;2022-09-27T02:08:29;21.00;;;10.18;;
19219;SDS011;9744;49.364;7.484;2022-09-27T02:11:06;14.43;;;6.85;;
19219;SDS011;9744;49.364;7.484;2022-09-27T02:13:43;12.93;;;6.82;;
19219;SDS011;9744;49.364;7.484;2022-09-27T02:16:40;12.48;;;6.10;;
19219;SDS011;9744;49.364;7.484;2022-09-27T02:19:20;12.63;;;7.20;;
19219;SDS011;9744;49.364;7.484;2022-09-27T02:21:59;14.60;;;8.02;;
19219;SDS011;9744;49.364;7.484;2022-09-27T02:24:32;17.55;;;6.80;;
19219;SDS011;9744;49.364;7.484;2022-09-27T02:27:05;10.68;;;7.07;;
19219;SDS011;9744;49.364;7.484;2022-09-27T02:29:39;13.07;;;6.43;;
19219;SDS011;9744;49.364;7.484;2022-09-27T02:32:10;9.15;;;6.10;;
19219;SDS011;9744;49.364;7.484;2022-09-27T02:34:39;14.60;;;6.80;;
19219;SDS011;9744;49.364;7.484;2022-09-27T02:37:08;16.10;;;7.97;;
19219;SDS011;9744;49.364;7.484;2022-09-27T02:39:37;15.55;;;8.15;;
19219;SDS011;9744;49.364;7.484;2022-09-27T02:42:06;12.77;;;7.05;;
19219;SDS011;9744;49.364;7.484;2022-09-27T02:44:35;10.82;;;6.32;;
19219;SDS011;9744;49.364;7.484;2022-09-27T02:47:07;14.93;;;5.78;;
19219;SDS011;9744;49.364;7.484;2022-09-27T02:49:48;12.80;;;5.57;;
19219;SDS011;9744;49.364;7.484;2022-09-27T02:52:42;9.63;;;4.10;;
19219;SDS011;9744;49.364;7.484;2022-09-27T02:55:18;13.85;;;3.90;;
19219;SDS011;9744;49.364;7.484;2022-09-27T02:58:11;8.63;;;3.33;;
19219;SDS011;9744;49.364;7.484;2022-09-27T03:01:25;10.30;;;3.35;;
19219;SDS011;9744;49.364;7.484;2022-09-27T03:04:13;9.70;;;3.40;;
19219;SDS011;9744;49.364;7.484;2022-09-27T03:06:48;5.50;;;3.00;;
19219;SDS011;9744;49.364;7.484;2022-09-27T03:09:18;8.25;;;2.97;;
19219;SDS011;9744;49.364;7.484;2022-09-27T03:11:46;5.93;;;2.90;;
19219;SDS011;9744;49.364;7.484;2022-09-27T03:14:14;3.65;;;2.70;;
19219;SDS011;9744;49.364;7.484;2022-09-27T03:16:53;4.75;;;2.50;;
19219;SDS011;9744;49.364;7.484;2022-09-27T03:19:49;6.90;;;2.25;;
19219;SDS011;9744;49.364;7.484;2022-09-27T03:22:24;6.35;;;2.30;;
19219;SDS011;9744;49.364;7.484;2022-09-27T03:24:51;5.10;;;2.22;;
19219;SDS011;9744;49.364;7.484;2022-09-27T03:27:18;3.28;;;1.70;;
19219;SDS011;9744;49.364;7.484;2022-09-27T03:29:46;4.75;;;2.05;;
19219;SDS011;9744;49.364;7.484;2022-09-27T03:32:14;4.85;;;2.10;;
19219;SDS011;9744;49.364;7.484;2022-09-27T03:35:09;4.32;;;2.08;;
19219;SDS011;9744;49.364;7.484;2022-09-27T03:37:38;7.70;;;2.60;;
19219;SDS011;9744;49.364;7.484;2022-09-27T03:40:07;8.27;;;2.60;;
19219;SDS011;9744;49.364;7.484;2022-09-27T03:42:36;6.78;;;2.30;;
19219;SDS011;9744;49.364;7.484;2022-09-27T03:45:05;3.95;;;1.90;;
19219;SDS011;9744;49.364;7.484;2022-09-27T03:47:33;5.63;;;1.90;;
19219;SDS011;9744;49.364;7.484;2022-09-27T03:50:00;3.50;;;1.48;;
19219;SDS011;9744;49.364;7.484;2022-09-27T03:52:28;5.70;;;2.40;;
19219;SDS011;9744;49.364;7.484;2022-09-27T03:54:56;3.83;;;2.10;;
19219;SDS011;9744;49.364;7.484;2022-09-27T03:57:24;3.95;;;2.28;;
19219;SDS011;9744;49.364;7.484;2022-09-27T03:59:51;4.45;;;2.30;;
19219;SDS011;9744;49.364;7.484;2022-09-27T04:02:37;4.55;;;2.58;;
19219;SDS011;9744;49.364;7.484;2022-09-27T04:05:22;8.88;;;3.20;;
19219;SDS011;9744;49.364;7.484;2022-09-27T04:07:55;10.80;;;3.50;;
19219;SDS011;9744;49.364;7.484;2022-09-27T04:10:24;6.43;;;4.05;;
19219;SDS011;9744;49.364;7.484;2022-09-27T04:12:51;10.80;;;4.25;;
19219;SDS011;9744;49.364;7.484;2022-09-27T04:15:21;8.50;;;4.43;;
19219;SDS011;9744;49.364;7.484;2022-09-27T04:17:49;8.30;;;4.75;;
19219;SDS011;9744;49.364;7.484;2022-09-27T04:20:32;10.60;;;4.90;;
19219;SDS011;9744;49.364;7.484;2022-09-27T04:23:04;10.27;;;4.97;;
19219;SDS011;9744;49.364;7.484;2022-09-27T04:25:35;11.02;;;5.35;;
19219;SDS011;9744;49.364;7.484;2022-09-27T04:28:13;11.35;;;5.05;;
19219;SDS011;9744;49.364;7.484;2022-09-27T04:30:41;13.02;;;5.97;;
19219;SDS011;9744;49.364;7.484;2022-09-27T04:33:08;10.52;;;6.10;;
19219;SDS011;9744;49.364;7.484;2022-09-27T04:35:38;15.20;;;6.18;;
19219;SDS011;9744;49.364;7.484;2022-09-27T04:38:22;13.45;;;5.65;;
19219;SDS011;9744;49.364;7.484;2022-09-27T04:40:51;10.63;;;5.70;;
19219;SDS011;9744;49.364;7.484;2022-09-27T04:43:19;17.25;;;5.35;;
19219;SDS011;9744;49.364;7.484;2022-09-27T04:45:48;11.73;;;4.93;;
19219;SDS011;9744;49.364;7.484;2022-09-27T04:48:16;6.93;;;4.45;;
19219;SDS011;9744;49.364;7.484;2022-09-27T04:50:44;13.18;;;5.38;;
19219;SDS011;9744;49.364;7.484;2022-09-27T04:53:11;7.63;;;4.50;;
19219;SDS011;9744;49.364;7.484;2022-09-27T04:55:40;9.25;;;4.53;;
19219;SDS011;9744;49.364;7.484;2022-09-27T04:58:12;8.00;;;5.05;;
19219;SDS011;9744;49.364;7.484;2022-09-27T05:00:40;10.52;;;4.50;;
19219;SDS011;9744;49.364;7.484;2022-09-27T05:03:27;7.07;;;4.57;;
19219;SDS011;9744;49.364;7.484;2022-09-27T05:05:58;9.02;;;4.20;;
19219;SDS011;9744;49.364;7.484;2022-09-27T05:08:26;11.10;;;4.65;;
19219;SDS011;9744;49.364;7.484;2022-09-27T05:11:12;9.13;;;4.43;;
19219;SDS011;9744;49.364;7.484;2022-09-27T05:13:58;8.82;;;3.80;;
19219;SDS011;9744;49.364;7.484;2022-09-27T05:16:27;7.05;;;3.53;;
19219;SDS011;9744;49.364;7.484;2022-09-27T05:19:18;9.45;;;3.85;;
19219;SDS011;9744;49.364;7.484;2022-09-27T05:22:12;9.75;;;3.10;;
19219;SDS011;9744;49.364;7.484;2022-09-27T05:24:39;6.75;;;3.30;;
19219;SDS011;9744;49.364;7.484;2022-09-27T05:27:07;5.93;;;2.70;;
19219;SDS011;9744;49.364;7.484;2022-09-27T05:29:40;5.18;;;2.70;;
19219;SDS011;9744;49.364;7.484;2022-09-27T05:32:16;5.60;;;2.38;;
19219;SDS011;9744;49.364;7.484;2022-09-27T05:34:47;4.78;;;2.67;;
19219;SDS011;9744;49.364;7.484;2022-09-27T05:37:18;3.40;;;2.20;;
19219;SDS011;9744;49.364;7.484;2022-09-27T05:39:46;8.93;;;2.95;;
19219;SDS011;9744;49.364;7.484;2022-09-27T05:42:15;5.10;;;3.17;;
19219;SDS011;9744;49.364;7.484;2022-09-27T05:44:45;6.65;;;3.28;;
19219;SDS011;9744;49.364;7.484;2022-09-27T05:47:13;8.75;;;3.70;;
19219;SDS011;9744;49.364;7.484;2022-09-27T05:49:41;5.95;;;3.90;;
19219;SDS011;9744;49.364;7.484;2022-09-27T05:52:10;7.22;;;4.00;;
19219;SDS011;9744;49.364;7.484;2022-09-27T05:54:38;8.48;;;4.13;;
19219;SDS011;9744;49.364;7.484;2022-09-27T05:57:06;7.43;;;3.85;;
19219;SDS011;9744;49.364;7.484;2022-09-27T05:59:46;7.32;;;4.07;;
19219;SDS011;9744;49.364;7.484;2022-09-27T06:02:19;6.18;;;3.65;;
19219;SDS011;9744;49.364;7.484;2022-09-27T06:05:06;7.65;;;3.50;;
19219;SDS011;9744;49.364;7.484;2022-09-27T06:08:10;4.90;;;3.20;;
19219;SDS011;9744;49.364;7.484;2022-09-27T06:10:44;5.65;;;3.38;;
19219;SDS011;9744;49.364;7.484;2022-09-27T06:13:14;14.80;;;4.20;;
19219;SDS011;9744;49.364;7.484;2022-09-27T06:15:43;7.18;;;3.35;;
19219;SDS011;9744;49.364;7.484;2022-09-27T06:18:13;5.57;;;3.05;;
19219;SDS011;9744;49.364;7.484;2022-09-27T06:20:45;11.82;;;3.28;;
19219;SDS011;9744;49.364;7.484;2022-09-27T06:23:14;8.23;;;3.90;;
19219;SDS011;9744;49.364;7.484;2022-09-27T06:25:43;12.00;;;4.00;;
19219;SDS011;9744;49.364;7.484;2022-09-27T06:28:20;12.18;;;4.75;;
19219;SDS011;9744;49.364;7.484;2022-09-27T06:30:53;12.20;;;4.63;;
19219;SDS011;9744;49.364;7.484;2022-09-27T06:33:41;7.22;;;4.35;;
19219;SDS011;9744;49.364;7.484;2022-09-27T06:36:09;10.02;;;4.68;;
19219;SDS011;9744;49.364;7.484;2022-09-27T06:38:40;7.50;;;4.47;;
19219;SDS011;9744;49.364;7.484;2022-09-27T06:41:13;8.13;;;4.60;;
19219;SDS011;9744;49.364;7.484;2022-09-27T06:44:08;9.13;;;4.63;;
19219;SDS011;9744;49.364;7.484;2022-09-27T06:46:57;9.98;;;5.00;;
19219;SDS011;9744;49.364;7.484;2022-09-27T06:49:51;8.43;;;4.80;;
19219;SDS011;9744;49.364;7.484;2022-09-27T06:52:18;8.73;;;4.38;;
19219;SDS011;9744;49.364;7.484;2022-09-27T06:54:45;8.23;;;5.05;;
19219;SDS011;9744;49.364;7.484;2022-09-27T06:57:13;9.30;;;4.78;;
19219;SDS011;9744;49.364;7.484;2022-09-27T07:00:02;7.68;;;5.10;;
19219;SDS011;9744;49.364;7.484;2022-09-27T07:03:08;12.15;;;5.10;;
19219;SDS011;9744;49.364;7.484;2022-09-27T07:05:54;10.30;;;5.35;;
19219;SDS011;9744;49.364;7.484;2022-09-27T07:08:48;7.45;;;4.68;;
19219;SDS011;9744;49.364;7.484;2022-09-27T07:11:17;9.95;;;5.40;;
19219;SDS011;9744;49.364;7.484;2022-09-27T07:13:44;8.77;;;5.53;;
19219;SDS011;9744;49.364;7.484;2022-09-27T07:16:12;21.65;;;12.95;;
19219;SDS011;9744;49.364;7.484;2022-09-27T07:18:42;10.93;;;6.97;;
19219;SDS011;9744;49.364;7.484;2022-09-27T07:21:09;15.82;;;8.07;;
19219;SDS011;9744;49.364;7.484;2022-09-27T07:23:37;10.93;;;7.22;;
19219;SDS011;9744;49.364;7.484;2022-09-27T07:26:07;14.10;;;7.68;;
19219;SDS011;9744;49.364;7.484;2022-09-27T07:28:36;12.70;;;8.10;;
19219;SDS011;9744;49.364;7.484;2022-09-27T07:31:06;11.07;;;7.13;;
19219;SDS011;9744;49.364;7.484;2022-09-27T07:36:29;9.85;;;6.85;;
19219;SDS011;9744;49.364;7.484;2022-09-27T07:38:58;16.40;;;7.63;;
19219;SDS011;9744;49.364;7.484;2022-09-27T07:41:25;22.40;;;8.15;;
19219;SDS011;9744;49.364;7.484;2022-09-27T07:43:53;16.92;;;9.80;;
19219;SDS011;9744;49.364;7.484;2022-09-27T07:46:24;18.42;;;9.15;;
19219;SDS011;9744;49.364;7.484;2022-09-27T07:49:25;14.77;;;7.80;;
19219;SDS011;9744;49.364;7.484;2022-09-27T07:52:23;14.35;;;6.68;;
19219;SDS011;9744;49.364;7.484;2022-09-27T07:55:13;16.08;;;7.43;;
19219;SDS011;9744;49.364;7.484;2022-09-27T07:58:05;16.65;;;7.20;;
19219;SDS011;9744;49.364;7.484;2022-09-27T08:00:34;13.05;;;6.78;;
19219;SDS011;9744;49.364;7.484;2022-09-27T08:03:05;14.50;;;6.97;;
19219;SDS011;9744;49.364;7.484;2022-09-27T08:05:35;15.80;;;7.38;;
19219;SDS011;9744;49.364;7.484;2022-09-27T08:08:02;19.10;;;8.48;;
19219;SDS011;9744;49.364;7.484;2022-09-27T08:10:31;14.63;;;7.78;;
19219;SDS011;9744;49.364;7.484;2022-09-27T08:12:59;18.25;;;7.25;;
19219;SDS011;9744;49.364;7.484;2022-09-27T08:15:29;12.10;;;6.50;;
19219;SDS011;9744;49.364;7.484;2022-09-27T08:17:57;9.85;;;6.28;;
19219;SDS011;9744;49.364;7.484;2022-09-27T08:20:49;8.27;;;5.15;;
19219;SDS011;9744;49.364;7.484;2022-09-27T08:23:35;9.95;;;4.80;;
19219;SDS011;9744;49.364;7.484;2022-09-27T08:29:24;7.95;;;4.47;;
19219;SDS011;9744;49.364;7.484;2022-09-27T08:31:54;11.63;;;4.28;;
19219;SDS011;9744;49.364;7.484;2022-09-27T08:34:22;12.93;;;4.22;;
19219;SDS011;9744;49.364;7.484;2022-09-27T08:51:46;10.18;;;4.07;;
19219;SDS011;9744;49.364;7.484;2022-09-27T08:54:23;8.25;;;4.00;;
19219;SDS011;9744;49.364;7.484;2022-09-27T08:56:55;6.68;;;3.55;;
19219;SDS011;9744;49.364;7.484;2022-09-27T08:59:28;15.35;;;4.20;;
19219;SDS011;9744;49.364;7.484;2022-09-27T09:02:01;8.10;;;3.72;;
19219;SDS011;9744;49.364;7.484;2022-09-27T09:04:33;19.90;;;4.80;;
19219;SDS011;9744;49.364;7.484;2022-09-27T09:07:07;7.05;;;4.47;;
19219;SDS011;9744;49.364;7.484;2022-09-27T09:09:42;7.57;;;4.15;;
19219;SDS011;9744;49.364;7.484;2022-09-27T09:12:24;14.70;;;5.20;;
19219;SDS011;9744;49.364;7.484;2022-09-27T09:15:34;16.10;;;7.20;;
19219;SDS011;9744;49.364;7.484;2022-09-27T09:18:51;23.73;;;7.32;;
19219;SDS011;9744;49.364;7.484;2022-09-27T09:21:41;19.67;;;7.13;;
19219;SDS011;9744;49.364;7.484;2022-09-27T09:24:21;17.50;;;8.10;;
19219;SDS011;9744;49.364;7.484;2022-09-27T09:27:01;20.70;;;9.48;;
19219;SDS011;9744;49.364;7.484;2022-09-27T09:29:48;16.88;;;8.40;;
19219;SDS011;9744;49.364;7.484;2022-09-27T09:32:30;17.35;;;9.32;;
19219;SDS011;9744;49.364;7.484;2022-09-27T09:35:06;13.68;;;7.75;;
19219;SDS011;9744;49.364;7.484;2022-09-27T09:37:38;16.27;;;7.43;;
19219;SDS011;9744;49.364;7.484;2022-09-27T09:40:15;14.82;;;6.55;;
19219;SDS011;9744;49.364;7.484;2022-09-27T09:42:47;15.20;;;6.28;;
19219;SDS011;9744;49.364;7.484;2022-09-27T09:45:21;13.35;;;5.45;;
19219;SDS011;9744;49.364;7.484;2022-09-27T09:47:56;8.32;;;5.20;;
19219;SDS011;9744;49.364;7.484;2022-09-27T09:50:29;13.65;;;5.68;;
19219;SDS011;9744;49.364;7.484;2022-09-27T09:53:09;8.95;;;5.32;;
19219;SDS011;9744;49.364;7.484;2022-09-27T09:55:42;7.00;;;3.90;;
19219;SDS011;9744;49.364;7.484;2022-09-27T09:58:19;11.75;;;3.63;;
19219;SDS011;9744;49.364;7.484;2022-09-27T10:00:55;11.27;;;4.18;;
19219;SDS011;9744;49.364;7.484;2022-09-27T10:03:26;10.20;;;4.20;;
19219;SDS011;9744;49.364;7.484;2022-09-27T10:05:54;9.93;;;3.13;;
19219;SDS011;9744;49.364;7.484;2022-09-27T10:08:21;5.10;;;2.75;;
19219;SDS011;9744;49.364;7.484;2022-09-27T10:11:21;8.65;;;2.70;;
19219;SDS011;9744;49.364;7.484;2022-09-27T10:14:08;5.22;;;2.70;;
19219;SDS011;9744;49.364;7.484;2022-09-27T10:16:38;5.60;;;2.75;;
19219;SDS011;9744;49.364;7.484;2022-09-27T10:19:08;3.28;;;1.92;;
19219;SDS011;9744;49.364;7.484;2022-09-27T10:21:40;4.13;;;2.63;;
19219;SDS011;9744;49.364;7.484;2022-09-27T10:24:12;4.07;;;1.85;;
19219;SDS011;9744;49.364;7.484;2022-09-27T10:27:10;2.90;;;2.00;;
19219;SDS011;9744;49.364;7.484;2022-09-27T10:29:39;6.78;;;2.63;;
19219;SDS011;9744;49.364;7.484;2022-09-27T10:32:18;6.15;;;2.30;;
19219;SDS011;9744;49.364;7.484;2022-09-27T10:34:52;5.47;;;2.20;;
19219;SDS011;9744;49.364;7.484;2022-09-27T10:37:22;5.97;;;2.03;;
19219;SDS011;9744;49.364;7.484;2022-09-27T10:39:56;2.25;;;1.58;;
19219;SDS011;9744;49.364;7.484;2022-09-27T10:42:33;5.43;;;2.38;;
19219;SDS011;9744;49.364;7.484;2022-09-27T10:47:56;5.38;;;1.73;;
19219;SDS011;9744;49.364;7.484;2022-09-27T10:50:35;3.42;;;1.55;;
19219;SDS011;9744;49.364;7.484;2022-09-27T10:53:35;4.68;;;1.80;;
19219;SDS011;9744;49.364;7.484;2022-09-27T10:56:11;4.28;;;1.60;;
19219;SDS011;9744;49.364;7.484;2022-09-27T10:58:50;3.97;;;1.25;;
19219;SDS011;9744;49.364;7.484;2022-09-27T11:01:19;4.57;;;2.75;;
19219;SDS011;9744;49.364;7.484;2022-09-27T11:04:18;6.65;;;2.72;;
19219;SDS011;9744;49.364;7.484;2022-09-27T11:07:05;5.85;;;2.30;;
19219;SDS011;9744;49.364;7.484;2022-09-27T11:09:43;4.40;;;2.30;;
19219;SDS011;9744;49.364;7.484;2022-09-27T11:12:13;7.18;;;2.78;;
19219;SDS011;9744;49.364;7.484;2022-09-27T11:14:53;8.73;;;3.13;;
19219;SDS011;9744;49.364;7.484;2022-09-27T11:17:29;5.85;;;2.08;;
19219;SDS011;9744;49.364;7.484;2022-09-27T11:20:04;2.15;;;1.63;;
19219;SDS011;9744;49.364;7.484;2022-09-27T11:22:47;4.22;;;1.75;;
19219;SDS011;9744;49.364;7.484;2022-09-27T11:25:37;5.13;;;2.03;;
19219;SDS011;9744;49.364;7.484;2022-09-27T11:28:14;4.18;;;2.10;;
19219;SDS011;9744;49.364;7.484;2022-09-27T11:30:57;4.85;;;2.50;;
19219;SDS011;9744;49.364;7.484;2022-09-27T11:33:44;4.63;;;1.52;;
19219;SDS011;9744;49.364;7.484;2022-09-27T11:36:33;3.97;;;1.25;;
19219;SDS011;9744;49.364;7.484;2022-09-27T11:39:10;1.88;;;1.13;;
19219;SDS011;9744;49.364;7.484;2022-09-27T11:41:54;6.20;;;1.38;;
19219;SDS011;9744;49.364;7.484;2022-09-27T11:44:39;1.73;;;0.90;;
19219;SDS011;9744;49.364;7.484;2022-09-27T11:47:27;3.00;;;1.20;;
19219;SDS011;9744;49.364;7.484;2022-09-27T11:53:12;4.25;;;1.35;;
19219;SDS011;9744;49.364;7.484;2022-09-27T11:55:50;7.10;;;2.10;;
19219;SDS011;9744;49.364;7.484;2022-09-27T11:58:30;6.70;;;2.17;;
19219;SDS011;9744;49.364;7.484;2022-09-27T12:01:13;5.22;;;1.70;;
19219;SDS011;9744;49.364;7.484;2022-09-27T12:06:51;3.33;;;0.98;;
19219;SDS011;9744;49.364;7.484;2022-09-27T12:09:27;3.40;;;1.00;;
19219;SDS011;9744;49.364;7.484;2022-09-27T12:11:58;6.63;;;1.98;;
19219;SDS011;9744;49.364;7.484;2022-09-27T12:14:32;5.00;;;1.25;;
19219;SDS011;9744;49.364;7.484;2022-09-27T12:17:02;6.68;;;1.30;;
19219;SDS011;9744;49.364;7.484;2022-09-27T12:19:32;5.40;;;1.08;;
19219;SDS011;9744;49.364;7.484;2022-09-27T12:22:08;4.18;;;1.20;;
19219;SDS011;9744;49.364;7.484;2022-09-27T12:24:43;6.40;;;1.67;;
19219;SDS011;9744;49.364;7.484;2022-09-27T12:27:33;5.60;;;1.23;;
19219;SDS011;9744;49.364;7.484;2022-09-27T12:30:10;5.90;;;1.38;;
19219;SDS011;9744;49.364;7.484;2022-09-27T12:32:43;3.38;;;1.27;;
19219;SDS011;9744;49.364;7.484;2022-09-27T12:35:21;4.47;;;1.17;;
19219;SDS011;9744;49.364;7.484;2022-09-27T12:37:54;6.75;;;1.52;;
19219;SDS011;9744;49.364;7.484;2022-09-27T12:40:26;3.28;;;1.38;;
19219;SDS011;9744;49.364;7.484;2022-09-27T12:42:59;4.15;;;1.40;;
19219;SDS011;9744;49.364;7.484;2022-09-27T12:45:48;3.85;;;1.83;;
19219;SDS011;9744;49.364;7.484;2022-09-27T12:48:21;4.07;;;1.20;;
19219;SDS011;9744;49.364;7.484;2022-09-27T12:50:57;3.00;;;1.38;;
19219;SDS011;9744;49.364;7.484;2022-09-27T12:53:34;3.53;;;1.30;;
19219;SDS011;9744;49.364;7.484;2022-09-27T13:01:57;1.98;;;0.90;;
19219;SDS011;9744;49.364;7.484;2022-09-27T13:07:50;4.20;;;0.93;;
19219;SDS011;9744;49.364;7.484;2022-09-27T13:10:30;1.48;;;0.80;;
19219;SDS011;9744;49.364;7.484;2022-09-27T13:13:20;0.75;;;0.75;;
19219;SDS011;9744;49.364;7.484;2022-09-27T13:15:52;1.90;;;0.60;;
19219;SDS011;9744;49.364;7.484;2022-09-27T13:18:29;5.97;;;1.08;;
19219;SDS011;9744;49.364;7.484;2022-09-27T13:21:52;1.38;;;0.50;;
19219;SDS011;9744;49.364;7.484;2022-09-27T13:24:45;1.60;;;0.50;;
19219;SDS011;9744;49.364;7.484;2022-09-27T13:36:16;2.88;;;0.77;;
19219;SDS011;9744;49.364;7.484;2022-09-27T13:38:51;0.50;;;0.50;;
19219;SDS011;9744;49.364;7.484;2022-09-27T13:41:26;1.63;;;0.63;;
19219;SDS011;9744;49.364;7.484;2022-09-27T13:44:03;1.02;;;0.45;;
19219;SDS011;9744;49.364;7.484;2022-09-27T13:46:45;1.63;;;0.55;;
19219;SDS011;9744;49.364;7.484;2022-09-27T13:49:18;1.17;;;0.47;;
19219;SDS011;9744;49.364;7.484;2022-09-27T13:52:24;1.02;;;0.60;;
19219;SDS011;9744;49.364;7.484;2022-09-27T13:55:35;1.90;;;0.57;;
19219;SDS011;9744;49.364;7.484;2022-09-27T13:58:07;1.67;;;0.55;;
19219;SDS011;9744;49.364;7.484;2022-09-27T14:00:44;4.00;;;0.77;;
19219;SDS011;9744;49.364;7.484;2022-09-27T14:06:23;3.15;;;1.20;;
19219;SDS011;9744;49.364;7.484;2022-09-27T14:08:55;2.15;;;1.10;;
19219;SDS011;9744;49.364;7.484;2022-09-27T14:11:25;3.65;;;0.98;;
19219;SDS011;9744;49.364;7.484;2022-09-27T14:13:54;2.60;;;1.23;;
19219;SDS011;9744;49.364;7.484;2022-09-27T14:16:29;3.75;;;0.80;;
19219;SDS011;9744;49.364;7.484;2022-09-27T14:19:00;1.27;;;0.80;;
19219;SDS011;9744;49.364;7.484;2022-09-27T14:21:38;3.30;;;0.43;;
19219;SDS011;9744;49.364;7.484;2022-09-27T14:24:23;1.08;;;0.80;;
19219;SDS011;9744;49.364;7.484;2022-09-27T14:27:05;1.48;;;0.75;;
19219;SDS011;9744;49.364;7.484;2022-09-27T14:29:40;2.72;;;0.70;;
19219;SDS011;9744;49.364;7.484;2022-09-27T14:32:13;0.95;;;0.60;;
19219;SDS011;9744;49.364;7.484;2022-09-27T14:35:07;2.35;;;0.60;;
19219;SDS011;9744;49.364;7.484;2022-09-27T14:37:53;2.60;;;1.05;;
19219;SDS011;9744;49.364;7.484;2022-09-27T14:40:20;1.60;;;0.82;;
19219;SDS011;9744;49.364;7.484;2022-09-27T14:42:51;1.17;;;0.70;;
19219;SDS011;9744;49.364;7.484;2022-09-27T14:45:21;1.42;;;0.98;;
19219;SDS011;9744;49.364;7.484;2022-09-27T14:47:54;3.00;;;0.77;;
19219;SDS011;9744;49.364;7.484;2022-09-27T14:50:23;2.88;;;1.30;;
19219;SDS011;9744;49.364;7.484;2022-09-27T14:52:53;8.48;;;4.60;;
19219;SDS011;9744;49.364;7.484;2022-09-27T14:55:22;3.63;;;2.70;;
19219;SDS011;9744;49.364;7.484;2022-09-27T14:57:52;2.72;;;1.13;;
19219;SDS011;9744;49.364;7.484;2022-09-27T15:00:23;1.10;;;0.90;;
19219;SDS011;9744;49.364;7.484;2022-09-27T15:02:54;4.72;;;1.08;;
19219;SDS011;9744;49.364;7.484;2022-09-27T15:05:23;3.03;;;1.15;;
19219;SDS011;9744;49.364;7.484;2022-09-27T15:07:52;2.33;;;1.23;;
19219;SDS011;9744;49.364;7.484;2022-09-27T15:10:22;42.08;;;17.35;;
19219;SDS011;9744;49.364;7.484;2022-09-27T15:12:55;42.45;;;19.58;;
19219;SDS011;9744;49.364;7.484;2022-09-27T15:15:26;6.18;;;2.78;;
19219;SDS011;9744;49.364;7.484;2022-09-27T15:17:57;3.55;;;1.48;;
19219;SDS011;9744;49.364;7.484;2022-09-27T15:20:26;3.17;;;1.42;;
19219;SDS011;9744;49.364;7.484;2022-09-27T15:22:55;1.10;;;0.80;;
19219;SDS011;9744;49.364;7.484;2022-09-27T15:25:25;3.08;;;1.40;;
19219;SDS011;9744;49.364;7.484;2022-09-27T15:27:59;7.97;;;1.65;;
19219;SDS011;9744;49.364;7.484;2022-09-27T15:30:33;2.40;;;1.02;;
19219;SDS011;9744;49.364;7.484;2022-09-27T15:33:17;2.83;;;1.27;;
19219;SDS011;9744;49.364;7.484;2022-09-27T15:35:47;1.33;;;0.93;;
19219;SDS011;9744;49.364;7.484;2022-09-27T15:38:22;0.90;;;0.77;;
19219;SDS011;9744;49.364;7.484;2022-09-27T15:40:56;2.40;;;1.15;;
19219;SDS011;9744;49.364;7.484;2022-09-27T15:43:36;2.90;;;1.30;;
19219;SDS011;9744;49.364;7.484;2022-09-27T15:46:23;3.78;;;1.13;;
19219;SDS011;9744;49.364;7.484;2022-09-27T15:49:20;5.13;;;1.40;;
19219;SDS011;9744;49.364;7.484;2022-09-27T15:51:59;5.45;;;1.40;;
19219;SDS011;9744;49.364;7.484;2022-09-27T15:54:28;4.43;;;1.55;;
19219;SDS011;9744;49.364;7.484;2022-09-27T15:56:59;1.63;;;1.20;;
19219;SDS011;9744;49.364;7.484;2022-09-27T15:59:30;1.80;;;1.17;;
19219;SDS011;9744;49.364;7.484;2022-09-27T16:01:59;2.60;;;1.08;;
19219;SDS011;9744;49.364;7.484;2022-09-27T16:04:29;4.45;;;0.93;;
19219;SDS011;9744;49.364;7.484;2022-09-27T16:06:57;3.40;;;1.65;;
19219;SDS011;9744;49.364;7.484;2022-09-27T16:09:26;2.90;;;1.05;;
19219;SDS011;9744;49.364;7.484;2022-09-27T16:11:54;3.67;;;1.33;;
19219;SDS011;9744;49.364;7.484;2022-09-27T16:14:21;2.72;;;0.90;;
19219;SDS011;9744;49.364;7.484;2022-09-27T16:16:48;3.38;;;1.30;;
19219;SDS011;9744;49.364;7.484;2022-09-27T16:19:18;7.55;;;2.08;;
19219;SDS011;9744;49.364;7.484;2022-09-27T16:21:47;3.95;;;2.28;;
19219;SDS011;9744;49.364;7.484;2022-09-27T16:24:15;4.05;;;1.63;;
19219;SDS011;9744;49.364;7.484;2022-09-27T16:26:42;2.83;;;1.05;;
19219;SDS011;9744;49.364;7.484;2022-09-27T16:29:10;1.48;;;0.88;;
19219;SDS011;9744;49.364;7.484;2022-09-27T16:31:39;2.75;;;0.80;;
19219;SDS011;9744;49.364;7.484;2022-09-27T16:34:07;3.78;;;1.10;;
19219;SDS011;9744;49.364;7.484;2022-09-27T16:36:34;2.75;;;0.90;;
19219;SDS011;9744;49.364;7.484;2022-09-27T16:39:03;2.33;;;1.00;;
19219;SDS011;9744;49.364;7.484;2022-09-27T16:41:32;2.85;;;1.10;;